createdAt,value
2024-01-12T00:00:47.825Z,22.20
2024-01-12T00:05:49.573Z,21.67
2024-01-12T00:10:51.171Z,22.30
2024-01-12T00:15:52.771Z,23.88
2024-01-12T00:20:54.476Z,23.63
2024-01-12T00:26:00.208Z,25.95
2024-01-12T00:31:02.014Z,24.52
2024-01-12T00:36:03.721Z,24.17
2024-01-12T00:41:05.297Z,28.13
2024-01-12T00:46:06.858Z,24.70
2024-01-12T00:51:11.916Z,23.65
2024-01-12T00:56:14.346Z,22.80
2024-01-12T01:01:15.939Z,23.60
2024-01-12T01:06:17.797Z,22.77
2024-01-12T01:11:19.419Z,23.15
2024-01-12T01:16:21.220Z,22.38
2024-01-12T01:21:22.788Z,22.23
2024-01-12T01:26:24.373Z,24.23
2024-01-12T01:31:26.385Z,24.25
2024-01-12T01:36:27.959Z,23.65
2024-01-12T01:41:29.541Z,22.95
2024-01-12T01:46:31.151Z,26.02
2024-01-12T01:51:32.796Z,25.10
2024-01-12T01:56:34.408Z,23.75
2024-01-12T02:01:35.975Z,24.58
2024-01-12T02:06:38.056Z,22.95
2024-01-12T02:11:39.716Z,22.75
2024-01-12T02:16:41.434Z,24.48
2024-01-12T02:21:42.983Z,24.05
2024-01-12T02:26:44.578Z,27.98
2024-01-12T02:31:46.329Z,25.63
2024-01-12T02:36:47.863Z,27.85
2024-01-12T02:41:49.442Z,27.05
2024-01-12T02:46:51.172Z,23.58
2024-01-12T02:51:52.857Z,24.13
2024-01-12T02:56:54.604Z,25.77
2024-01-12T03:01:56.210Z,25.50
2024-01-12T03:06:57.762Z,27.15
2024-01-12T03:11:59.465Z,26.67
2024-01-12T03:17:01.584Z,28.75
2024-01-12T03:22:03.192Z,28.60
2024-01-12T03:27:05.399Z,27.67
2024-01-12T03:32:07.117Z,28.85
2024-01-12T03:37:09.064Z,30.42
2024-01-12T03:42:12.101Z,36.50
2024-01-12T03:47:13.750Z,37.60
2024-01-12T03:52:16.612Z,33.78
2024-01-12T03:57:18.385Z,33.97
2024-01-12T04:02:20.082Z,37.00
2024-01-12T04:07:21.783Z,36.28
2024-01-12T04:12:23.376Z,38.88
2024-01-12T04:17:24.980Z,33.85
2024-01-12T04:22:26.681Z,34.33
2024-01-12T04:27:29.482Z,31.20
2024-01-12T04:32:31.167Z,32.17
2024-01-12T04:37:32.774Z,31.13
2024-01-12T04:42:34.539Z,29.75
2024-01-12T04:47:36.232Z,33.38
2024-01-12T04:52:37.863Z,28.67
2024-01-12T04:57:39.578Z,30.88
2024-01-12T05:02:41.638Z,30.90
2024-01-12T05:07:43.359Z,35.97
2024-01-12T05:12:44.960Z,32.50
2024-01-12T05:17:46.602Z,32.50
2024-01-12T05:22:48.723Z,34.65
2024-01-12T05:27:50.346Z,39.67
2024-01-12T05:32:52.150Z,39.33
2024-01-12T05:37:53.830Z,39.35
2024-01-12T05:42:55.439Z,38.70
2024-01-12T05:47:57.031Z,37.22
2024-01-12T05:52:59.009Z,38.08
2024-01-12T05:58:00.721Z,36.78
2024-01-12T06:03:02.367Z,36.55
2024-01-12T06:08:04.125Z,34.75
2024-01-12T06:13:05.703Z,35.78
2024-01-12T06:18:07.609Z,38.63
2024-01-12T06:23:09.318Z,40.60
2024-01-12T06:28:11.950Z,38.90
2024-01-12T06:33:15.627Z,43.70
2024-01-12T06:38:17.512Z,45.97
2024-01-12T06:43:19.134Z,45.05
2024-01-12T06:48:21.811Z,43.05
2024-01-12T06:53:23.546Z,40.38
2024-01-12T06:58:25.094Z,39.88
2024-01-12T07:03:26.775Z,44.10
2024-01-12T07:08:28.468Z,46.50
2024-01-12T07:13:30.116Z,45.38
2024-01-12T07:18:31.877Z,44.42
2024-01-12T07:23:33.594Z,46.75
2024-01-12T07:28:35.204Z,46.30
2024-01-12T07:33:37.235Z,44.38
2024-01-12T07:38:38.883Z,43.90
2024-01-12T07:43:40.988Z,42.97
2024-01-12T07:48:42.704Z,41.80
2024-01-12T07:53:44.445Z,41.47
2024-01-12T07:58:46.635Z,42.83
2024-01-12T08:03:48.509Z,37.53
2024-01-12T08:08:50.241Z,39.83
2024-01-12T08:13:51.842Z,38.80
2024-01-12T08:18:53.449Z,42.75
2024-01-12T08:23:55.518Z,40.83
2024-01-12T08:29:02.534Z,42.35
2024-01-12T08:34:04.247Z,45.03
2024-01-12T08:39:06.261Z,39.53
2024-01-12T08:44:08.084Z,41.88
2024-01-12T08:49:09.839Z,39.63
2024-01-12T08:54:11.705Z,40.40
2024-01-12T08:59:13.304Z,41.45
2024-01-12T09:04:15.148Z,38.95
2024-01-12T09:09:17.646Z,30.55
2024-01-12T09:14:19.346Z,27.90
2024-01-12T09:19:21.060Z,28.77
2024-01-12T09:24:22.707Z,22.27
2024-01-12T09:29:24.349Z,18.90
2024-01-12T09:34:26.063Z,16.67
2024-01-12T09:39:28.232Z,20.10
2024-01-12T09:44:30.611Z,19.30
2024-01-12T09:49:32.534Z,17.00
2024-01-12T09:54:34.878Z,15.63
2024-01-12T09:59:36.908Z,15.75
2024-01-12T10:04:38.721Z,18.17
2024-01-12T10:09:41.110Z,16.35
2024-01-12T10:14:42.743Z,16.50
2024-01-12T10:19:45.082Z,15.32
2024-01-12T10:24:46.880Z,13.07
2024-01-12T10:29:48.497Z,15.45
2024-01-12T10:34:50.701Z,17.25
2024-01-12T10:39:52.356Z,17.65
2024-01-12T10:44:54.045Z,18.30
2024-01-12T10:50:02.945Z,16.77
2024-01-12T10:55:06.137Z,17.02
2024-01-12T11:00:09.702Z,18.90
2024-01-12T11:05:11.970Z,15.40
2024-01-12T11:10:13.763Z,14.02
2024-01-12T11:15:15.539Z,14.40
2024-01-12T11:20:21.124Z,14.05
2024-01-12T11:25:22.992Z,10.63
2024-01-12T11:30:26.431Z,13.23
2024-01-12T11:35:30.215Z,14.20
2024-01-12T11:40:34.402Z,12.07
2024-01-12T11:45:40.789Z,14.23
2024-01-12T11:50:43.003Z,13.45
2024-01-12T11:55:44.589Z,19.77
2024-01-12T12:00:49.958Z,14.15
2024-01-12T12:05:51.875Z,12.35
2024-01-12T12:10:53.826Z,14.02
2024-01-12T12:15:56.241Z,10.05
2024-01-12T12:20:58.922Z,12.77
2024-01-12T12:26:00.866Z,13.25
2024-01-12T12:31:03.344Z,13.70
2024-01-12T12:36:09.715Z,11.65
2024-01-12T12:41:12.796Z,12.25
2024-01-12T12:46:14.449Z,12.90
2024-01-12T12:51:16.112Z,13.88
2024-01-12T12:56:17.713Z,12.20
2024-01-12T13:01:19.278Z,13.68
2024-01-12T13:06:20.937Z,11.70
2024-01-12T13:11:22.510Z,13.63
2024-01-12T13:16:24.120Z,14.80
2024-01-12T13:21:25.964Z,34.80
2024-01-12T13:26:27.784Z,13.50
2024-01-12T13:31:29.358Z,15.30
2024-01-12T13:36:30.981Z,14.25
2024-01-12T13:41:32.612Z,14.18
2024-01-12T13:46:34.252Z,13.38
2024-01-12T13:51:35.998Z,14.60
2024-01-12T13:56:37.592Z,13.57
2024-01-12T14:01:39.295Z,14.35
2024-01-12T14:06:41.564Z,14.23
2024-01-12T14:11:43.329Z,15.52
2024-01-12T14:16:44.914Z,14.65
2024-01-12T14:21:46.454Z,14.85
2024-01-12T14:26:48.506Z,14.18
2024-01-12T14:31:50.113Z,14.45
2024-01-12T14:36:51.733Z,15.95
2024-01-12T14:41:53.866Z,17.00
2024-01-12T14:46:55.465Z,17.15
2024-01-12T14:51:57.425Z,17.40
2024-01-12T14:56:59.046Z,21.70
2024-01-12T15:02:00.605Z,16.17
2024-01-12T15:07:02.789Z,18.15
2024-01-12T15:12:07.288Z,17.98
2024-01-12T15:17:09.248Z,17.30
2024-01-12T15:22:10.852Z,18.52
2024-01-12T15:27:12.547Z,18.77
2024-01-12T15:32:14.196Z,17.83
2024-01-12T15:37:15.818Z,18.73
2024-01-12T15:42:17.428Z,19.27
2024-01-12T15:47:19.040Z,17.83
2024-01-12T15:52:20.600Z,21.27
2024-01-12T15:57:22.304Z,20.63
2024-01-12T16:02:24.563Z,19.23
2024-01-12T16:07:26.751Z,19.92
2024-01-12T16:12:28.455Z,21.23
2024-01-12T16:17:30.263Z,19.52
2024-01-12T16:22:31.927Z,21.00
2024-01-12T16:27:33.491Z,21.20
2024-01-12T16:32:35.475Z,22.38
2024-01-12T16:37:37.212Z,20.30
2024-01-12T16:42:38.853Z,27.20
2024-01-12T16:47:40.503Z,22.77
2024-01-12T16:52:42.130Z,25.27
2024-01-12T16:57:43.673Z,21.98
2024-01-12T17:02:45.323Z,21.77
2024-01-12T17:07:47.900Z,22.90
2024-01-12T17:12:49.442Z,21.83
2024-01-12T17:17:51.068Z,22.65
2024-01-12T17:22:52.655Z,24.52
2024-01-12T17:27:54.248Z,23.20
2024-01-12T17:32:56.898Z,20.17
2024-01-12T17:38:25.583Z,20.45
2024-01-12T17:43:46.042Z,20.27
2024-01-12T17:48:47.832Z,18.25
2024-01-12T17:53:50.799Z,18.65
2024-01-12T17:58:52.507Z,18.73
2024-01-12T18:03:54.080Z,18.08
2024-01-12T18:08:57.758Z,17.70
2024-01-12T18:13:59.459Z,17.50
2024-01-12T18:19:01.319Z,17.75
2024-01-12T18:24:04.207Z,16.40
2024-01-12T18:29:05.809Z,16.67
2024-01-12T18:34:07.509Z,15.38
2024-01-12T18:39:09.264Z,19.55
2024-01-12T18:44:11.885Z,14.68
2024-01-12T18:49:15.813Z,15.57
2024-01-12T18:54:19.437Z,16.10
2024-01-12T18:59:21.148Z,17.65
2024-01-12T19:04:23.762Z,17.02
2024-01-12T19:09:25.346Z,16.52
2024-01-12T19:14:26.941Z,16.80
2024-01-12T19:19:28.672Z,20.02
2024-01-12T19:24:30.315Z,21.77
2024-01-12T19:29:33.869Z,15.77
2024-01-12T19:34:50.056Z,16.00
2024-01-12T19:39:51.693Z,17.33
2024-01-12T19:44:53.396Z,15.88
2024-01-12T19:49:55.000Z,20.45
2024-01-12T19:54:56.535Z,20.50
2024-01-12T19:59:58.127Z,26.00
2024-01-12T20:05:00.275Z,18.83
2024-01-12T20:10:02.433Z,15.85
2024-01-12T20:15:05.355Z,14.70
2024-01-12T20:20:08.414Z,17.65
2024-01-12T20:25:10.274Z,17.90
2024-01-12T20:30:12.693Z,18.52
2024-01-12T20:35:14.548Z,19.90
2024-01-12T20:40:16.142Z,17.70
2024-01-12T20:45:18.038Z,13.85
2024-01-12T20:50:19.894Z,14.82
2024-01-12T20:55:21.451Z,15.57
2024-01-12T21:00:23.290Z,19.23
2024-01-12T21:05:25.653Z,19.65
2024-01-12T21:10:27.413Z,18.50
2024-01-12T21:15:31.609Z,21.42
2024-01-12T21:20:33.260Z,21.23
2024-01-12T21:25:34.862Z,17.20
2024-01-12T21:30:36.504Z,20.50
2024-01-12T21:35:38.146Z,19.92
2024-01-12T21:40:39.863Z,20.50
2024-01-12T21:45:41.758Z,22.00
2024-01-12T21:50:43.407Z,19.20
2024-01-12T21:55:45.046Z,17.55
2024-01-12T22:00:46.653Z,20.20
2024-01-12T22:05:48.398Z,19.00
2024-01-12T22:10:50.092Z,17.92
2024-01-12T22:15:51.717Z,15.93
2024-01-12T22:20:53.864Z,20.35
2024-01-12T22:25:55.530Z,17.75
2024-01-12T22:30:57.184Z,16.48
2024-01-12T22:35:58.777Z,17.63
2024-01-12T22:41:00.373Z,15.70
2024-01-12T22:46:02.295Z,17.50
2024-01-12T22:51:04.159Z,18.30
2024-01-12T22:56:05.929Z,18.85
2024-01-12T23:01:07.513Z,19.58
2024-01-12T23:06:10.441Z,20.02
2024-01-12T23:11:12.045Z,21.50
2024-01-12T23:16:13.673Z,18.23
2024-01-12T23:21:15.334Z,18.77
2024-01-12T23:26:17.029Z,20.23
2024-01-12T23:31:18.768Z,18.95
2024-01-12T23:36:21.857Z,19.58
2024-01-12T23:41:31.039Z,18.73
2024-01-12T23:46:32.941Z,18.13
2024-01-12T23:51:34.502Z,17.67
2024-01-12T23:56:36.099Z,19.13
